KMLU/MLU METAR and TAF weather

Enter ICAO airport designator
Station Type Date Time Source
KMLU METAR 2021/05/11 22:53 UTC NOAA

KMLU 112253Z 04004KT 10SM BKN018 OVC070 21/19 A3000 RMK AO2 LTG DSNT N AND NE RAE09 TSE09 SLP158 P0001 T02060194


Station Type Date Time Source
KMLU Decoded METAR 2021/05/11 22:53 UTC NOAA

MONROE REGIONAL AIRPORT, LA, United States (KMLU) 32-31N 092-02W 29M
May 11, 2021 - 06:53 PM EDT / 2021.05.11 2253 UTC
Wind: from the NE (040 degrees) at 5 MPH (4 KT):0
Visibility: 10 mile(s):0
Sky conditions: overcast
Weather: Lightning observed
Precipitation last hour: 0.01 inches
Temperature: 69.1 F (20.6 C)
Dew Point: 66.9 F (19.4 C)
Relative Humidity: 92%
Pressure (altimeter): 30 in. Hg (1015 hPa)
ob: KMLU 112253Z 04004KT 10SM BKN018 OVC070 21/19 A3000 RMK AO2 LTG DSNT N AND NE RAE09 TSE09 SLP158 P0001 T02060194
cycle: 23

Station Type Date Time Source
KMLU TAF 2021/05/11 18:39 UTC NOAA

KMLU 111735Z 1118/1218 VRB06KT P6SM OVC005
FM112000 VRB06KT P6SM VCSH OVC007
TEMPO 1121/1124 3SM TSRA BR OVC007CB
FM120000 03006KT 3SM TSRA BR OVC005CB
FM120500 03006KT 6SM -TSRA BR OVC007CB
FM120700 02006KT P6SM -RA OVC004
FM121000 02008KT P6SM OVC004

Example: see airport list